createdAt,value
2023-12-22T00:02:26.952Z,0.63
2023-12-22T00:04:54.087Z,0.68
2023-12-22T00:07:21.495Z,0.50
2023-12-22T00:09:48.498Z,0.70
2023-12-22T00:12:15.263Z,0.38
2023-12-22T00:14:42.009Z,0.60
2023-12-22T00:17:08.915Z,0.63
2023-12-22T00:19:36.020Z,0.70
2023-12-22T00:22:04.616Z,0.50
2023-12-22T00:24:31.786Z,0.60
2023-12-22T00:26:58.689Z,0.60
2023-12-22T00:29:25.646Z,0.60
2023-12-22T00:31:52.462Z,0.60
2023-12-22T00:34:20.754Z,0.70
2023-12-22T00:36:47.547Z,0.80
2023-12-22T00:39:14.524Z,0.90
2023-12-22T00:41:41.260Z,0.50
2023-12-22T00:44:08.048Z,0.70
2023-12-22T00:46:34.730Z,0.73
2023-12-22T00:49:01.542Z,0.60
2023-12-22T00:51:28.246Z,0.57
2023-12-22T00:53:55.043Z,0.60
2023-12-22T00:56:21.865Z,0.57
2023-12-22T00:58:55.307Z,0.77
2023-12-22T01:01:29.535Z,0.75
2023-12-22T01:03:56.334Z,0.50
2023-12-22T01:06:26.123Z,0.70
2023-12-22T01:08:54.483Z,0.60
2023-12-22T01:11:21.477Z,0.47
2023-12-22T01:13:48.244Z,0.60
2023-12-22T01:16:16.991Z,0.70
2023-12-22T01:18:45.681Z,0.68
2023-12-22T01:21:13.044Z,0.65
2023-12-22T01:23:39.880Z,0.50
2023-12-22T01:26:06.601Z,0.50
2023-12-22T01:28:35.110Z,0.70
2023-12-22T01:31:02.539Z,0.50
2023-12-22T01:33:30.538Z,0.52
2023-12-22T01:35:57.618Z,0.45
2023-12-22T01:38:24.420Z,0.50
2023-12-22T01:40:51.164Z,0.73
2023-12-22T01:43:22.738Z,0.57
2023-12-22T01:45:53.419Z,0.50
2023-12-22T01:48:20.289Z,0.50
2023-12-22T01:50:47.179Z,0.45
2023-12-22T01:53:14.063Z,0.50
2023-12-22T01:55:40.908Z,0.60
2023-12-22T01:58:08.650Z,0.40
2023-12-22T02:00:38.420Z,0.70
2023-12-22T02:03:05.608Z,0.50
2023-12-22T02:05:32.397Z,0.50
2023-12-22T02:07:59.558Z,0.50
2023-12-22T02:10:26.521Z,0.75
2023-12-22T02:12:53.654Z,0.47
2023-12-22T02:15:20.622Z,0.70
2023-12-22T02:18:02.816Z,0.60
2023-12-22T02:22:56.608Z,0.38
2023-12-22T02:25:23.491Z,0.40
2023-12-22T02:28:04.788Z,0.50
2023-12-22T02:30:43.227Z,0.70
2023-12-22T02:33:11.438Z,0.50
2023-12-22T02:35:39.451Z,0.57
2023-12-22T02:38:07.976Z,0.50
2023-12-22T02:40:35.892Z,0.60
2023-12-22T02:43:04.379Z,0.55
2023-12-22T02:45:31.498Z,0.60
2023-12-22T02:47:58.426Z,0.45
2023-12-22T02:50:25.463Z,0.70
2023-12-22T02:52:52.211Z,0.60
2023-12-22T02:55:19.893Z,0.80
2023-12-22T02:57:46.826Z,0.70
2023-12-22T03:00:13.960Z,0.50
2023-12-22T03:02:40.658Z,0.70
2023-12-22T03:05:07.688Z,0.60
2023-12-22T03:07:34.625Z,0.55
2023-12-22T03:10:01.501Z,0.80
2023-12-22T03:12:28.267Z,0.70
2023-12-22T03:14:55.081Z,0.60
2023-12-22T03:17:21.825Z,0.60
2023-12-22T03:19:48.620Z,0.73
2023-12-22T03:22:17.985Z,0.70
2023-12-22T03:24:45.579Z,0.65
2023-12-22T03:27:17.230Z,0.52
2023-12-22T03:29:45.156Z,0.70
2023-12-22T03:32:11.943Z,0.88
2023-12-22T03:34:38.794Z,0.80
2023-12-22T03:37:05.463Z,0.68
2023-12-22T03:39:32.253Z,0.80
2023-12-22T03:41:58.987Z,0.57
2023-12-22T03:44:26.726Z,0.70
2023-12-22T03:46:53.691Z,0.55
2023-12-22T03:49:20.965Z,0.63
2023-12-22T03:51:47.732Z,0.70
2023-12-22T03:54:16.975Z,0.73
2023-12-22T03:56:43.778Z,0.85
2023-12-22T03:59:10.493Z,0.77
2023-12-22T04:01:37.318Z,0.70
2023-12-22T04:04:04.072Z,0.80
2023-12-22T04:06:30.751Z,0.70
2023-12-22T04:08:57.520Z,0.70
2023-12-22T04:11:24.395Z,0.90
2023-12-22T04:13:51.129Z,0.70
2023-12-22T04:16:18.124Z,0.73
2023-12-22T04:18:45.061Z,1.00
2023-12-22T04:21:11.901Z,0.90
2023-12-22T04:23:38.755Z,1.08
2023-12-22T04:26:05.508Z,1.10
2023-12-22T04:28:32.225Z,0.90
2023-12-22T04:30:59.078Z,0.98
2023-12-22T04:33:25.887Z,1.05
2023-12-22T04:35:52.628Z,1.40
2023-12-22T04:38:19.434Z,1.00
2023-12-22T04:40:46.229Z,0.80
2023-12-22T04:43:12.978Z,0.98
2023-12-22T04:45:39.754Z,1.15
2023-12-22T04:48:07.288Z,1.23
2023-12-22T04:50:34.075Z,0.82
2023-12-22T04:53:00.892Z,0.90
2023-12-22T04:55:27.725Z,0.77
2023-12-22T04:57:54.500Z,0.98
2023-12-22T05:00:21.201Z,0.90
2023-12-22T05:02:47.949Z,1.08
2023-12-22T05:05:14.781Z,1.10
2023-12-22T05:07:41.603Z,0.95
2023-12-22T05:10:08.846Z,1.00
2023-12-22T05:12:35.699Z,1.13
2023-12-22T05:15:02.559Z,1.10
2023-12-22T05:17:29.356Z,1.00
2023-12-22T05:19:56.051Z,1.20
2023-12-22T05:22:22.882Z,1.10
2023-12-22T05:24:49.795Z,1.00
2023-12-22T05:27:16.494Z,1.25
2023-12-22T05:29:43.277Z,1.00
2023-12-22T05:32:10.116Z,0.95
2023-12-22T05:34:37.846Z,1.02
2023-12-22T05:37:04.969Z,1.17
2023-12-22T05:39:32.042Z,1.05
2023-12-22T05:41:58.906Z,1.35
2023-12-22T05:44:25.750Z,0.70
2023-12-22T05:46:52.557Z,1.00
2023-12-22T05:49:19.552Z,1.00
2023-12-22T05:51:46.445Z,1.02
2023-12-22T05:54:13.656Z,0.70
2023-12-22T05:56:40.693Z,1.20
2023-12-22T05:59:07.602Z,1.30
2023-12-22T06:01:34.484Z,1.20
2023-12-22T06:04:01.297Z,0.90
2023-12-22T06:06:28.978Z,1.00
2023-12-22T06:08:55.884Z,0.80
2023-12-22T06:11:23.346Z,0.95
2023-12-22T06:13:50.538Z,1.30
2023-12-22T06:16:19.484Z,1.00
2023-12-22T06:18:46.602Z,1.02
2023-12-22T06:21:13.562Z,1.10
2023-12-22T06:23:40.742Z,1.05
2023-12-22T06:26:13.925Z,1.20
2023-12-22T06:28:41.713Z,0.88
2023-12-22T06:31:10.218Z,1.15
2023-12-22T06:33:37.100Z,1.20
2023-12-22T06:36:04.119Z,1.08
2023-12-22T06:38:32.233Z,1.30
2023-12-22T06:40:59.058Z,1.13
2023-12-22T06:43:26.026Z,0.93
2023-12-22T06:45:56.076Z,0.95
2023-12-22T06:48:23.087Z,1.00
2023-12-22T06:50:50.127Z,0.95
2023-12-22T06:53:25.259Z,1.00
2023-12-22T06:55:53.101Z,1.10
2023-12-22T06:58:22.662Z,0.82
2023-12-22T07:00:49.869Z,1.02
2023-12-22T07:03:18.735Z,1.10
2023-12-22T07:05:45.785Z,1.20
2023-12-22T07:08:12.852Z,1.10
2023-12-22T07:10:39.875Z,0.95
2023-12-22T07:13:07.624Z,1.10
2023-12-22T07:15:34.486Z,1.30
2023-12-22T07:18:02.500Z,1.30
2023-12-22T07:20:29.860Z,1.20
2023-12-22T07:22:58.017Z,1.17
2023-12-22T07:25:25.001Z,1.15
2023-12-22T07:27:53.211Z,0.90
2023-12-22T07:30:21.383Z,0.82
2023-12-22T07:32:53.294Z,1.10
2023-12-22T07:35:20.467Z,1.20
2023-12-22T07:37:47.768Z,1.20
2023-12-22T07:40:16.331Z,0.95
2023-12-22T07:42:44.317Z,1.05
2023-12-22T07:45:11.062Z,0.85
2023-12-22T07:47:38.575Z,1.00
2023-12-22T07:50:09.578Z,0.80
2023-12-22T07:52:40.264Z,1.00
2023-12-22T07:55:11.842Z,0.90
2023-12-22T07:57:39.807Z,0.90
2023-12-22T08:00:07.445Z,0.90
2023-12-22T08:02:34.359Z,1.23
2023-12-22T08:05:01.400Z,1.02
2023-12-22T08:07:28.273Z,0.75
2023-12-22T08:09:55.201Z,1.23
2023-12-22T08:12:21.890Z,1.15
2023-12-22T08:14:48.635Z,1.10
2023-12-22T08:17:15.329Z,1.00
2023-12-22T08:19:45.933Z,0.88
2023-12-22T08:22:14.708Z,1.00
2023-12-22T08:24:42.759Z,1.08
2023-12-22T08:27:10.105Z,1.05
2023-12-22T08:29:37.013Z,0.80
2023-12-22T08:32:05.179Z,1.00
2023-12-22T08:34:32.148Z,1.15
2023-12-22T08:36:59.279Z,1.10
2023-12-22T08:39:26.247Z,1.10
2023-12-22T08:41:54.293Z,0.70
2023-12-22T08:44:21.302Z,1.20
2023-12-22T08:46:48.129Z,1.10
2023-12-22T08:49:15.081Z,1.15
2023-12-22T08:51:42.474Z,1.13
2023-12-22T08:54:09.382Z,1.02
2023-12-22T08:56:36.630Z,1.05
2023-12-22T08:59:03.515Z,0.98
2023-12-22T09:01:30.369Z,1.20
2023-12-22T09:03:57.091Z,1.25
2023-12-22T09:06:25.833Z,1.13
2023-12-22T09:08:53.807Z,1.00
2023-12-22T09:11:21.748Z,1.30
2023-12-22T09:13:48.624Z,1.10
2023-12-22T09:16:21.168Z,1.10
2023-12-22T09:18:48.084Z,1.15
2023-12-22T09:21:15.076Z,1.00
2023-12-22T09:23:45.626Z,1.20
2023-12-22T09:26:12.443Z,1.00
2023-12-22T09:28:39.302Z,1.02
2023-12-22T09:31:07.506Z,1.35
2023-12-22T09:33:34.436Z,1.63
2023-12-22T09:36:01.181Z,1.40
2023-12-22T09:38:28.931Z,1.55
2023-12-22T09:40:57.123Z,1.00
2023-12-22T09:43:25.012Z,1.17
2023-12-22T09:45:52.161Z,1.30
2023-12-22T09:48:21.782Z,1.27
2023-12-22T09:50:48.776Z,1.00
2023-12-22T09:53:16.208Z,1.25
2023-12-22T09:55:47.361Z,1.17
2023-12-22T09:58:16.078Z,1.35
2023-12-22T10:00:43.555Z,1.17
2023-12-22T10:03:15.427Z,1.13
2023-12-22T10:05:42.537Z,1.25
2023-12-22T10:08:13.265Z,1.00
2023-12-22T10:10:41.485Z,1.25
2023-12-22T10:13:13.276Z,1.10
2023-12-22T10:15:44.687Z,1.30
2023-12-22T10:18:12.003Z,1.13
2023-12-22T10:20:39.430Z,1.40
2023-12-22T10:23:07.218Z,1.20
2023-12-22T10:25:34.239Z,1.15
2023-12-22T10:28:01.125Z,1.08
2023-12-22T10:30:29.314Z,0.98
2023-12-22T10:32:56.420Z,1.23
2023-12-22T10:35:24.220Z,1.42
2023-12-22T10:37:55.091Z,1.40
2023-12-22T10:40:23.771Z,1.38
2023-12-22T10:42:51.817Z,0.93
2023-12-22T10:45:22.847Z,1.27
2023-12-22T10:47:54.537Z,1.30
2023-12-22T10:52:52.575Z,1.17
2023-12-22T10:55:19.988Z,1.23
2023-12-22T10:57:50.208Z,1.13
2023-12-22T11:00:18.006Z,1.30
2023-12-22T11:02:50.283Z,1.40
2023-12-22T11:05:19.259Z,1.23
2023-12-22T11:07:51.841Z,1.45
2023-12-22T11:10:22.636Z,1.20
2023-12-22T11:12:50.432Z,1.27
2023-12-22T11:15:19.251Z,1.05
2023-12-22T11:17:50.058Z,1.20
2023-12-22T11:20:17.514Z,1.40
2023-12-22T11:22:45.685Z,1.00
2023-12-22T11:25:16.135Z,0.82
2023-12-22T11:27:45.830Z,1.42
2023-12-22T11:30:15.027Z,0.95
2023-12-22T11:32:44.956Z,0.82
2023-12-22T11:35:12.484Z,1.23
2023-12-22T11:37:40.251Z,1.08
2023-12-22T11:40:07.827Z,1.13
2023-12-22T11:42:46.495Z,1.10
2023-12-22T11:45:17.113Z,1.05
2023-12-22T11:47:44.164Z,0.82
2023-12-22T11:50:14.678Z,1.10
2023-12-22T11:52:42.163Z,1.02
2023-12-22T11:55:09.130Z,1.20
2023-12-22T11:57:39.229Z,1.05
2023-12-22T12:00:08.544Z,1.27
2023-12-22T12:02:39.382Z,0.93
2023-12-22T12:05:08.866Z,1.08
2023-12-22T12:07:45.754Z,1.00
2023-12-22T12:10:33.284Z,1.00
2023-12-22T12:13:13.311Z,1.48
2023-12-22T12:15:40.307Z,0.90
2023-12-22T12:18:07.369Z,1.40
2023-12-22T12:20:35.027Z,1.40
2023-12-22T12:23:06.003Z,1.50
2023-12-22T12:25:37.139Z,1.17
2023-12-22T12:28:09.406Z,1.35
2023-12-22T12:30:40.855Z,1.25
2023-12-22T12:33:12.244Z,1.10
2023-12-22T12:35:43.216Z,1.15
2023-12-22T12:38:13.107Z,1.00
2023-12-22T12:40:42.357Z,0.95
2023-12-22T12:43:09.664Z,1.20
2023-12-22T12:45:36.525Z,0.90
2023-12-22T12:48:05.564Z,1.33
2023-12-22T12:50:34.514Z,1.10
2023-12-22T12:53:02.366Z,1.27
2023-12-22T12:55:29.846Z,1.10
2023-12-22T12:57:57.436Z,1.33
2023-12-22T13:00:31.524Z,1.55
2023-12-22T13:03:04.180Z,1.02
2023-12-22T13:05:31.777Z,1.13
2023-12-22T13:08:12.838Z,0.90
2023-12-22T13:10:41.154Z,1.03
2023-12-22T13:13:08.410Z,0.85
2023-12-22T13:15:35.494Z,0.73
2023-12-22T13:18:02.561Z,1.02
2023-12-22T13:20:29.736Z,0.90
2023-12-22T13:22:56.752Z,0.93
2023-12-22T13:25:25.394Z,0.80
2023-12-22T13:27:53.640Z,1.00
2023-12-22T13:30:42.824Z,1.02
2023-12-22T13:33:11.410Z,0.70
2023-12-22T13:35:42.280Z,0.90
2023-12-22T13:38:11.908Z,1.02
2023-12-22T13:40:40.312Z,1.05
2023-12-22T13:43:08.809Z,0.98
2023-12-22T13:45:36.166Z,1.10
2023-12-22T13:48:03.239Z,0.70
2023-12-22T13:50:30.260Z,0.90
2023-12-22T13:52:57.241Z,0.90
2023-12-22T13:55:24.550Z,0.70
2023-12-22T13:58:01.494Z,0.70
2023-12-22T14:00:32.484Z,0.60
2023-12-22T14:02:59.980Z,0.60
2023-12-22T14:05:30.553Z,0.68
2023-12-22T14:07:58.837Z,0.70
2023-12-22T14:10:26.482Z,0.80
2023-12-22T14:12:53.333Z,0.60
2023-12-22T14:15:20.246Z,0.70
2023-12-22T14:17:47.924Z,0.43
2023-12-22T14:20:15.621Z,0.60
2023-12-22T14:22:42.522Z,0.50
2023-12-22T14:25:10.032Z,0.70
2023-12-22T14:27:36.767Z,0.70
2023-12-22T14:30:04.250Z,0.47
2023-12-22T14:32:31.325Z,0.77
2023-12-22T14:34:58.314Z,0.70
2023-12-22T14:37:25.185Z,0.50
2023-12-22T14:39:52.021Z,0.50
2023-12-22T14:42:19.708Z,0.65
2023-12-22T14:44:46.822Z,0.65
2023-12-22T14:47:14.555Z,0.50
2023-12-22T14:49:41.946Z,0.60
2023-12-22T14:52:09.356Z,0.60
2023-12-22T14:54:36.249Z,0.70
2023-12-22T14:57:03.115Z,0.60
2023-12-22T14:59:30.229Z,0.60
2023-12-22T15:01:57.068Z,0.52
2023-12-22T15:04:24.190Z,0.73
2023-12-22T15:07:00.503Z,0.70
2023-12-22T15:09:28.550Z,0.65
2023-12-22T15:11:57.005Z,0.60
2023-12-22T15:14:24.106Z,0.60
2023-12-22T15:16:53.107Z,0.68
2023-12-22T15:19:20.561Z,0.60
2023-12-22T15:21:47.690Z,0.60
2023-12-22T15:24:14.582Z,0.50
2023-12-22T15:26:41.278Z,0.80
2023-12-22T15:29:09.572Z,0.40
2023-12-22T15:31:37.951Z,0.50
2023-12-22T15:34:07.140Z,0.57
2023-12-22T15:36:35.374Z,0.40
2023-12-22T15:39:02.427Z,0.60
2023-12-22T15:41:32.570Z,0.38
2023-12-22T15:44:00.680Z,0.60
2023-12-22T15:46:27.841Z,0.70
2023-12-22T15:48:54.696Z,0.32
2023-12-22T15:51:22.008Z,0.60
2023-12-22T15:53:49.187Z,0.47
2023-12-22T15:56:18.158Z,0.50
2023-12-22T15:58:45.752Z,0.60
2023-12-22T16:01:15.747Z,0.60
2023-12-22T16:03:44.056Z,0.60
2023-12-22T16:06:11.032Z,0.50
2023-12-22T16:08:37.910Z,0.50
2023-12-22T16:11:06.021Z,0.65
2023-12-22T16:13:34.271Z,0.50
2023-12-22T16:16:02.842Z,0.60
2023-12-22T16:18:30.357Z,0.40
2023-12-22T16:20:57.445Z,0.40
2023-12-22T16:23:24.368Z,0.50
2023-12-22T16:25:52.879Z,0.50
2023-12-22T16:28:20.272Z,0.40
2023-12-22T16:30:50.325Z,0.50
2023-12-22T16:33:17.742Z,0.40
2023-12-22T16:35:44.763Z,0.50
2023-12-22T16:38:12.015Z,0.60
2023-12-22T16:40:40.438Z,0.50
2023-12-22T16:43:07.298Z,0.50
2023-12-22T16:45:34.121Z,0.40
2023-12-22T16:48:02.426Z,0.63
2023-12-22T16:50:29.723Z,0.60
2023-12-22T16:52:56.894Z,0.50
2023-12-22T16:55:23.960Z,0.57
2023-12-22T16:57:51.140Z,0.45
2023-12-22T17:00:20.794Z,0.50
2023-12-22T17:02:48.680Z,0.47
2023-12-22T17:05:16.387Z,0.40
2023-12-22T17:07:46.073Z,0.40
2023-12-22T17:10:13.395Z,0.50
2023-12-22T17:12:40.251Z,0.50
2023-12-22T17:15:07.786Z,0.38
2023-12-22T17:17:35.056Z,0.60
2023-12-22T17:20:03.514Z,0.52
2023-12-22T17:22:31.498Z,0.40
2023-12-22T17:24:58.621Z,0.60
2023-12-22T17:27:25.446Z,0.50
2023-12-22T17:29:52.307Z,0.60
2023-12-22T17:32:19.322Z,0.60
2023-12-22T17:34:46.248Z,0.40
2023-12-22T17:37:13.228Z,0.47
2023-12-22T17:39:40.048Z,0.30
2023-12-22T17:42:06.933Z,0.45
2023-12-22T17:44:33.785Z,0.40
2023-12-22T17:47:05.009Z,0.40
2023-12-22T17:49:33.152Z,0.40
2023-12-22T17:52:00.351Z,0.40
2023-12-22T17:54:27.300Z,0.32
2023-12-22T17:56:54.541Z,0.47
2023-12-22T17:59:21.590Z,0.60
2023-12-22T18:01:51.344Z,0.40
2023-12-22T18:04:18.363Z,0.50
2023-12-22T18:06:45.308Z,0.30
2023-12-22T18:09:12.501Z,0.50
2023-12-22T18:11:43.679Z,0.38
2023-12-22T18:14:11.046Z,0.50
2023-12-22T18:16:41.789Z,0.47
2023-12-22T18:19:09.968Z,0.52
2023-12-22T18:21:37.611Z,0.38
2023-12-22T18:24:04.868Z,0.45
2023-12-22T18:26:31.833Z,0.40
2023-12-22T18:28:58.857Z,0.45
2023-12-22T18:31:25.740Z,0.50
2023-12-22T18:33:52.831Z,0.60
2023-12-22T18:36:19.856Z,0.40
2023-12-22T18:38:47.078Z,0.50
2023-12-22T18:41:14.361Z,0.40
2023-12-22T18:43:41.264Z,0.30
2023-12-22T18:46:08.164Z,0.40
2023-12-22T18:48:35.827Z,0.55
2023-12-22T18:51:02.971Z,0.30
2023-12-22T18:53:29.846Z,0.30
2023-12-22T18:55:58.179Z,0.40
2023-12-22T18:58:25.195Z,0.30
2023-12-22T19:00:52.100Z,0.30
2023-12-22T19:03:19.233Z,0.50
2023-12-22T19:05:46.322Z,0.30
2023-12-22T19:08:13.273Z,0.40
2023-12-22T19:10:40.294Z,0.50
2023-12-22T19:13:07.348Z,0.60
2023-12-22T19:15:34.599Z,0.40
2023-12-22T19:18:01.854Z,0.40
2023-12-22T19:20:28.790Z,0.30
2023-12-22T19:22:56.275Z,0.30
2023-12-22T19:25:23.233Z,0.47
2023-12-22T19:27:51.202Z,0.30
2023-12-22T19:30:18.225Z,0.40
2023-12-22T19:32:48.813Z,0.30
2023-12-22T19:35:16.005Z,0.50
2023-12-22T19:37:43.074Z,0.50
2023-12-22T19:40:10.533Z,0.40
2023-12-22T19:42:37.396Z,0.45
2023-12-22T19:45:04.691Z,0.45
2023-12-22T19:47:31.543Z,0.55
2023-12-22T19:49:58.526Z,0.50
2023-12-22T19:52:25.759Z,0.40
2023-12-22T19:54:52.693Z,0.40
2023-12-22T19:57:19.546Z,0.40
2023-12-22T19:59:46.337Z,0.30
2023-12-22T20:02:13.296Z,0.40
2023-12-22T20:04:40.225Z,0.40
2023-12-22T20:07:07.219Z,0.30
2023-12-22T20:09:34.457Z,0.40
2023-12-22T20:12:02.015Z,0.30
2023-12-22T20:14:29.040Z,0.38
2023-12-22T20:16:55.953Z,0.47
2023-12-22T20:19:23.192Z,0.38
2023-12-22T20:21:50.087Z,0.40
2023-12-22T20:24:17.094Z,0.40
2023-12-22T20:26:44.149Z,0.50
2023-12-22T20:29:11.184Z,0.32
2023-12-22T20:31:38.497Z,0.50
2023-12-22T20:34:06.042Z,0.40
2023-12-22T20:36:33.114Z,0.30
2023-12-22T20:39:00.031Z,0.30
2023-12-22T20:41:26.952Z,0.38
2023-12-22T20:43:54.369Z,0.50
2023-12-22T20:46:21.644Z,0.57
2023-12-22T20:48:48.931Z,0.40
2023-12-22T20:51:15.804Z,0.50
2023-12-22T20:53:42.575Z,0.40
2023-12-22T20:56:21.943Z,0.30
2023-12-22T20:58:49.284Z,0.40
2023-12-22T21:01:16.913Z,0.35
2023-12-22T21:03:44.183Z,0.50
2023-12-22T21:06:11.300Z,0.43
2023-12-22T21:08:38.688Z,0.60
2023-12-22T21:11:08.303Z,0.45
2023-12-22T21:13:35.702Z,0.52
2023-12-22T21:16:06.937Z,0.43
2023-12-22T21:18:34.588Z,0.50
2023-12-22T21:21:05.504Z,0.50
2023-12-22T21:23:32.744Z,0.40
2023-12-22T21:26:00.105Z,0.65
2023-12-22T21:28:27.263Z,0.60
2023-12-22T21:30:54.688Z,0.60
2023-12-22T21:33:21.833Z,0.40
2023-12-22T21:35:48.890Z,0.40
2023-12-22T21:38:15.821Z,0.40
2023-12-22T21:40:42.973Z,0.40
2023-12-22T21:43:09.811Z,0.68
2023-12-22T21:45:39.477Z,0.45
2023-12-22T21:48:07.554Z,0.50
2023-12-22T21:50:34.674Z,0.43
2023-12-22T21:53:01.641Z,0.47
2023-12-22T21:55:28.336Z,0.52
2023-12-22T21:57:55.074Z,0.60
2023-12-22T22:00:23.782Z,0.40
2023-12-22T22:02:50.516Z,0.50
2023-12-22T22:05:17.509Z,0.65
2023-12-22T22:07:44.365Z,0.50
2023-12-22T22:10:11.228Z,0.52
2023-12-22T22:12:37.908Z,0.60
2023-12-22T22:15:05.306Z,0.68
2023-12-22T22:17:32.360Z,0.60
2023-12-22T22:19:59.167Z,0.57
2023-12-22T22:22:25.981Z,0.50
2023-12-22T22:24:52.768Z,0.50
2023-12-22T22:27:19.672Z,0.60
2023-12-22T22:29:46.650Z,0.50
2023-12-22T22:32:13.649Z,0.60
2023-12-22T22:34:41.343Z,0.50
2023-12-22T22:37:09.225Z,0.50
2023-12-22T22:39:38.904Z,0.68
2023-12-22T22:42:05.980Z,0.57
2023-12-22T22:44:32.753Z,0.40
2023-12-22T22:46:59.587Z,0.50
2023-12-22T22:49:26.629Z,0.50
2023-12-22T22:51:53.810Z,0.63
2023-12-22T22:54:21.481Z,0.47
2023-12-22T22:56:48.209Z,0.40
2023-12-22T22:59:16.470Z,0.38
2023-12-22T23:01:47.650Z,0.40
2023-12-22T23:04:14.756Z,0.53
2023-12-22T23:06:41.639Z,0.45
2023-12-22T23:09:08.690Z,0.60
2023-12-22T23:11:35.934Z,0.40
2023-12-22T23:14:02.982Z,0.60
2023-12-22T23:16:29.978Z,0.65
2023-12-22T23:18:57.137Z,0.55
2023-12-22T23:21:24.088Z,0.60
2023-12-22T23:23:50.860Z,0.40
2023-12-22T23:26:17.649Z,0.70
2023-12-22T23:28:44.497Z,0.65
2023-12-22T23:31:11.204Z,0.60
2023-12-22T23:33:38.062Z,0.52
2023-12-22T23:36:14.009Z,0.40
2023-12-22T23:38:48.847Z,0.40
2023-12-22T23:41:15.809Z,0.45
2023-12-22T23:43:42.660Z,0.60
2023-12-22T23:46:09.586Z,0.60
2023-12-22T23:48:37.506Z,0.60
2023-12-22T23:51:05.148Z,0.57
2023-12-22T23:53:31.904Z,0.70
2023-12-22T23:55:58.736Z,0.50
2023-12-22T23:58:25.447Z,0.50
